Time;durP1;ratioP1;P1;durP2;ratioP2;P2;SDS_P1;SDS_P2;PMS_P1;PMS_P2;Temp;Humidity;BMP_temperature;BMP_pressure;BME280_temperature;BME280_humidity;BME280_pressure;Samples;Min_cycle;Max_cycle;Signal;HPM_P1;HPM_P2
2023/09/03 00:00:14;;;;;;;39.60;35.30;;;;;;;18.22;69.14;101876.88;683122;28;1513;-80
2023/09/03 00:00:38;;;;;;;39.10;34.97;;;;;;;18.20;69.20;101881.28;685193;28;1549;-81
2023/09/03 00:00:58;;;;;;;37.40;33.50;;;;;;;18.19;69.10;101882.16;684854;28;1083;-80
2023/09/03 00:01:19;;;;;;;35.97;32.25;;;;;;;18.15;69.09;101875.94;684531;28;1321;-80
2023/09/03 00:01:39;;;;;;;38.10;34.20;;;;;;;18.14;69.09;101878.50;682540;28;1051;-80
2023/09/03 00:02:00;;;;;;;42.28;36.78;;;;;;;18.17;69.25;101884.75;684935;28;1764;-80
2023/09/03 00:02:20;;;;;;;45.80;39.63;;;;;;;18.14;69.01;101878.50;686574;28;1211;-80
2023/09/03 00:02:41;;;;;;;48.70;40.35;;;;;;;18.14;69.31;101879.41;687539;28;1452;-80
2023/09/03 00:03:02;;;;;;;46.78;41.00;;;;;;;18.14;69.18;101879.41;682515;28;1165;-81
2023/09/03 00:03:23;;;;;;;45.85;40.90;;;;;;;18.16;69.24;101879.44;683440;28;807;-80
2023/09/03 00:03:43;;;;;;;46.08;41.38;;;;;;;18.18;69.29;101882.97;685241;28;990;-81
2023/09/03 00:04:04;;;;;;;45.40;40.90;;;;;;;18.18;69.19;101886.53;684793;28;1217;-80
2023/09/03 00:04:25;;;;;;;43.80;39.50;;;;;;;18.15;69.00;101885.59;686461;28;1479;-80
2023/09/03 00:04:45;;;;;;;42.77;38.47;;;;;;;18.15;69.14;101880.31;685243;28;1065;-80
2023/09/03 00:05:07;;;;;;;45.25;38.80;;;;;;;18.13;69.13;101879.38;682256;28;1560;-80
2023/09/03 00:05:27;;;;;;;49.47;40.00;;;;;;;18.12;69.02;101872.31;687327;28;1291;-79
2023/09/03 00:05:50;;;;;;;51.63;40.55;;;;;;;18.15;69.02;101880.31;684127;28;1607;-81
2023/09/03 00:06:11;;;;;;;46.38;41.13;;;;;;;18.16;69.09;101879.44;682449;29;1031;-80
2023/09/03 00:06:34;;;;;;;45.53;40.50;;;;;;;18.14;69.28;101875.88;682565;29;1084;-80
2023/09/03 00:06:55;;;;;;;44.92;40.22;;;;;;;18.18;69.02;101880.34;684593;28;2000;-81
2023/09/03 00:07:15;;;;;;;45.15;40.35;;;;;;;18.17;69.00;101881.22;680660;28;1372;-80
2023/09/03 00:07:36;;;;;;;45.40;40.60;;;;;;;18.15;68.80;101880.31;682653;28;1179;-80
2023/09/03 00:07:57;;;;;;;44.92;40.22;;;;;;;18.15;69.01;101883.84;681881;28;1431;-81
2023/09/03 00:08:17;;;;;;;44.72;40.08;;;;;;;18.19;68.91;101890.06;679415;29;1512;-80
2023/09/03 00:08:38;;;;;;;45.72;41.00;;;;;;;18.11;69.06;101873.16;682672;29;1224;-81
2023/09/03 00:09:00;;;;;;;44.97;40.42;;;;;;;18.17;69.06;101887.41;686229;28;1579;-80
2023/09/03 00:09:20;;;;;;;46.10;41.17;;;;;;;18.14;68.83;101883.78;685162;28;1180;-80
2023/09/03 00:09:41;;;;;;;46.33;41.22;;;;;;;18.16;68.97;101888.28;685203;28;1915;-81
2023/09/03 00:10:02;;;;;;;49.03;42.43;;;;;;;18.16;69.01;101887.38;687058;28;1452;-81
2023/09/03 00:10:23;;;;;;;50.15;42.72;;;;;;;18.15;69.11;101882.94;686656;28;1479;-80
2023/09/03 00:10:48;;;;;;;50.58;42.95;;;;;;;18.16;69.11;101893.56;685094;28;1517;-81
2023/09/03 00:11:08;;;;;;;47.45;42.13;;;;;;;18.14;68.99;101889.97;681812;29;1803;-81
2023/09/03 00:11:29;;;;;;;45.65;40.75;;;;;;;18.13;69.10;101890.81;682469;28;1339;-81
2023/09/03 00:11:50;;;;;;;44.43;39.77;;;;;;;18.14;69.10;101895.25;685041;28;1398;-80
2023/09/03 00:12:10;;;;;;;43.50;38.88;;;;;;;18.14;68.97;101891.72;684631;28;1584;-80
2023/09/03 00:12:31;;;;;;;45.70;40.75;;;;;;;18.10;69.16;101888.13;684982;28;1452;-80
2023/09/03 00:12:51;;;;;;;47.77;42.00;;;;;;;18.13;69.15;101890.81;685074;28;1757;-80
2023/09/03 00:13:12;;;;;;;50.63;42.65;;;;;;;18.13;69.16;101887.31;681851;28;1288;-81
2023/09/03 00:13:33;;;;;;;49.53;42.58;;;;;;;18.14;69.36;101895.25;685289;28;1461;-80
2023/09/03 00:13:54;;;;;;;52.87;43.90;;;;;;;18.15;68.99;101896.16;687473;28;1433;-81
2023/09/03 00:14:14;;;;;;;50.05;44.65;;;;;;;18.14;69.11;101889.97;686094;28;1047;-81
2023/09/03 00:14:35;;;;;;;49.90;44.65;;;;;;;18.13;69.18;101888.16;687513;28;1249;-81
2023/09/03 00:14:56;;;;;;;49.47;44.08;;;;;;;18.12;69.24;101890.81;684680;28;1349;-81
2023/09/03 00:15:23;;;;;;;50.77;43.77;;;;;;;18.13;68.97;101890.81;681262;28;1517;-80
2023/09/03 00:15:44;;;;;;;49.13;43.80;;;;;;;18.12;69.25;101886.41;682891;28;1593;-81
2023/09/03 00:16:05;;;;;;;51.55;44.00;;;;;;;18.13;69.02;101884.66;681648;29;1178;-80
2023/09/03 00:16:26;;;;;;;53.50;44.22;;;;;;;18.12;69.08;101886.41;682104;29;1380;-81
2023/09/03 00:16:46;;;;;;;50.22;42.85;;;;;;;18.13;69.09;101889.94;682371;29;1090;-81
2023/09/03 00:17:07;;;;;;;46.30;40.70;;;;;;;18.11;68.96;101887.28;684982;28;1056;-81
2023/09/03 00:17:28;;;;;;;45.35;40.40;;;;;;;18.09;69.01;101884.59;682757;28;1299;-80
2023/09/03 00:17:49;;;;;;;47.72;42.10;;;;;;;18.08;69.08;101885.47;681454;29;1130;-81
2023/09/03 00:18:14;;;;;;;47.95;42.97;;;;;;;18.09;69.22;101892.53;683409;28;1400;-80
2023/09/03 00:18:37;;;;;;;48.10;43.13;;;;;;;18.08;69.22;101885.47;681095;28;1449;-80
2023/09/03 00:18:57;;;;;;;48.50;43.25;;;;;;;18.07;69.24;101894.25;684682;28;1898;-80
2023/09/03 00:19:18;;;;;;;48.93;42.50;;;;;;;18.08;69.22;101895.16;690086;28;1118;-80
2023/09/03 00:19:38;;;;;;;49.67;43.20;;;;;;;18.06;69.31;101895.13;687801;28;1300;-80
2023/09/03 00:19:59;;;;;;;49.77;43.17;;;;;;;18.07;69.33;101896.91;684204;28;1814;-81
2023/09/03 00:20:19;;;;;;;51.63;43.30;;;;;;;18.06;69.17;101891.59;684880;28;1719;-80
2023/09/03 00:20:41;;;;;;;50.42;43.60;;;;;;;18.03;69.05;101891.56;686475;28;1669;-80
2023/09/03 00:21:05;;;;;;;49.30;43.65;;;;;;;18.04;69.23;101896.88;684923;28;1088;-81
2023/09/03 00:21:25;;;;;;;50.25;43.42;;;;;;;18.05;69.34;101895.09;688586;28;767;-81
2023/09/03 00:21:46;;;;;;;54.53;43.23;;;;;;;18.03;69.24;101889.81;687064;28;1322;-81
2023/09/03 00:22:07;;;;;;;54.92;43.03;;;;;;;18.04;69.25;101894.22;688031;28;1325;-80
2023/09/03 00:22:27;;;;;;;53.20;43.97;;;;;;;18.00;69.11;101883.59;688010;28;1305;-80
2023/09/03 00:22:48;;;;;;;48.47;42.83;;;;;;;18.01;69.25;101898.56;685639;28;1388;-81
2023/09/03 00:23:09;;;;;;;48.80;43.57;;;;;;;18.01;69.30;101888.88;682600;28;1534;-80
2023/09/03 00:23:31;;;;;;;48.50;43.22;;;;;;;18.02;69.39;101890.66;682669;29;885;-81
2023/09/03 00:23:52;;;;;;;49.70;44.33;;;;;;;18.02;69.21;101895.94;676756;29;1465;-81
2023/09/03 00:24:13;;;;;;;48.70;43.25;;;;;;;18.00;69.38;101889.75;680979;29;1452;-80
2023/09/03 00:24:34;;;;;;;47.85;42.83;;;;;;;17.97;69.20;101889.72;685291;28;1610;-81
2023/09/03 00:24:55;;;;;;;47.90;42.97;;;;;;;17.98;69.36;101891.47;684690;28;1410;-81
2023/09/03 00:25:15;;;;;;;48.40;43.57;;;;;;;17.98;69.38;101887.94;684258;28;1923;-80
2023/09/03 00:25:36;;;;;;;50.28;43.45;;;;;;;18.01;69.53;101895.94;679228;29;1174;-81
2023/09/03 00:25:58;;;;;;;55.92;44.25;;;;;;;17.98;69.29;101894.13;682345;28;898;-81
2023/09/03 00:26:21;;;;;;;61.33;44.63;;;;;;;18.00;69.35;101892.38;684604;28;1320;-81
2023/09/03 00:26:47;;;;;;;58.55;44.25;;;;;;;18.00;69.46;101892.38;685085;28;1388;-81
2023/09/03 00:27:08;;;;;;;52.97;43.42;;;;;;;18.00;69.42;101897.66;686007;28;1116;-81
2023/09/03 00:27:28;;;;;;;48.17;42.50;;;;;;;17.97;69.55;101892.34;685253;28;1596;-80
2023/09/03 00:27:49;;;;;;;47.72;42.53;;;;;;;18.00;69.45;101892.38;685005;28;1193;-81
2023/09/03 00:28:09;;;;;;;45.87;40.93;;;;;;;17.96;69.36;101890.59;690285;28;1286;-81
2023/09/03 00:28:30;;;;;;;46.20;39.70;;;;;;;18.01;69.39;101896.81;689042;28;1441;-81
2023/09/03 00:28:50;;;;;;;45.38;39.83;;;;;;;17.99;69.37;101890.63;686661;28;1460;-81
2023/09/03 00:29:11;;;;;;;47.50;41.87;;;;;;;17.99;69.33;101897.63;682252;29;1124;-80
2023/09/03 00:29:32;;;;;;;46.33;41.40;;;;;;;17.95;69.46;101883.53;679590;29;1899;-80
2023/09/03 00:29:53;;;;;;;46.95;42.00;;;;;;;17.98;69.43;101894.13;686566;28;1228;-81
2023/09/03 00:30:14;;;;;;;46.78;41.65;;;;;;;17.98;69.45;101894.13;685857;28;1217;-81
2023/09/03 00:30:35;;;;;;;49.37;41.93;;;;;;;17.94;69.35;101890.56;685360;28;779;-80
2023/09/03 00:31:08;;;;;;;49.30;40.50;;;;;;;17.95;69.54;101894.09;682147;29;1145;-81
2023/09/03 00:31:29;;;;;;;49.33;42.13;;;;;;;17.95;69.50;101888.81;682548;29;1272;-81
2023/09/03 00:31:50;;;;;;;47.28;41.88;;;;;;;17.95;69.31;101894.97;687678;28;1102;-81
2023/09/03 00:32:10;;;;;;;46.90;40.95;;;;;;;17.92;69.53;101886.09;683551;28;1204;-81
2023/09/03 00:32:31;;;;;;;44.60;39.78;;;;;;;17.90;69.57;101890.50;682617;28;940;-80
2023/09/03 00:32:52;;;;;;;44.93;40.13;;;;;;;17.88;69.62;101887.81;682206;29;1311;-81
2023/09/03 00:33:12;;;;;;;45.97;41.03;;;;;;;17.85;69.62;101882.50;680705;29;1167;-80
2023/09/03 00:33:33;;;;;;;47.80;42.63;;;;;;;17.87;69.80;101886.03;685177;28;1202;-80
2023/09/03 00:33:55;;;;;;;49.72;44.35;;;;;;;17.84;69.77;101879.81;682358;28;1186;-81
2023/09/03 00:34:15;;;;;;;51.47;45.10;;;;;;;17.88;69.61;101889.59;685726;28;1314;-81
2023/09/03 00:34:36;;;;;;;52.37;44.87;;;;;;;17.92;69.77;101889.66;682164;29;1208;-81
2023/09/03 00:34:56;;;;;;;49.20;42.45;;;;;;;17.92;70.05;101883.47;684987;28;1050;-80
2023/09/03 00:35:17;;;;;;;46.58;40.70;;;;;;;17.88;69.53;101881.66;684884;28;1338;-80
2023/09/03 00:35:40;;;;;;;45.03;40.13;;;;;;;17.89;69.61;101891.34;687304;28;1255;-81
2023/09/03 00:36:04;;;;;;;46.28;41.22;;;;;;;17.88;69.59;101892.22;689947;28;1111;-81
2023/09/03 00:36:24;;;;;;;46.22;41.40;;;;;;;17.85;69.60;101884.22;682797;28;1543;-80
2023/09/03 00:36:46;;;;;;;45.38;40.78;;;;;;;17.87;69.76;101891.31;683000;28;1085;-81
2023/09/03 00:37:06;;;;;;;45.87;41.17;;;;;;;17.86;69.65;101881.63;682527;28;1343;-81
2023/09/03 00:37:27;;;;;;;45.80;40.95;;;;;;;17.86;69.57;101889.53;685239;28;1205;-80
2023/09/03 00:37:47;;;;;;;44.90;40.07;;;;;;;17.85;69.81;101892.16;685114;28;1014;-80
2023/09/03 00:38:08;;;;;;;42.47;37.83;;;;;;;17.81;69.70;101886.84;682778;28;1520;-81
2023/09/03 00:38:29;;;;;;;42.30;36.92;;;;;;;17.79;69.79;101877.09;682438;28;1384;-80
2023/09/03 00:38:49;;;;;;;42.57;37.93;;;;;;;17.82;69.73;101882.44;682623;28;1270;-81
2023/09/03 00:39:10;;;;;;;43.78;39.15;;;;;;;17.81;69.81;101881.56;683319;28;1165;-81
2023/09/03 00:39:33;;;;;;;43.95;39.55;;;;;;;17.78;69.68;101880.63;685085;28;1422;-80
2023/09/03 00:39:54;;;;;;;43.05;38.55;;;;;;;17.79;69.74;101877.09;682199;28;1150;-81
2023/09/03 00:40:14;;;;;;;42.13;37.72;;;;;;;17.75;69.92;101876.19;681459;29;1200;-81
2023/09/03 00:40:38;;;;;;;46.53;38.33;;;;;;;17.76;69.73;101875.31;682442;29;1618;-80
2023/09/03 00:40:59;;;;;;;45.08;37.47;;;;;;;17.77;69.32;101876.22;682046;29;1620;-80
2023/09/03 00:41:20;;;;;;;45.03;38.00;;;;;;;17.74;69.73;101874.41;684842;28;1321;-80
2023/09/03 00:41:40;;;;;;;42.38;37.72;;;;;;;17.76;69.74;101877.94;682211;29;1292;-80
2023/09/03 00:42:01;;;;;;;42.58;37.83;;;;;;;17.76;69.76;101877.06;682348;28;938;-81
2023/09/03 00:42:22;;;;;;;41.38;36.88;;;;;;;17.73;69.63;101877.91;688094;28;803;-81
2023/09/03 00:42:43;;;;;;;40.20;36.17;;;;;;;17.76;69.70;101887.63;683620;28;1743;-81
2023/09/03 00:43:03;;;;;;;39.20;35.50;;;;;;;17.71;69.75;101877.00;684907;28;1218;-81
2023/09/03 00:43:24;;;;;;;39.72;35.75;;;;;;;17.71;69.78;101879.66;685078;28;1489;-80
2023/09/03 00:43:45;;;;;;;40.10;35.78;;;;;;;17.71;69.74;101884.94;682234;28;1571;-81
2023/09/03 00:44:05;;;;;;;41.13;36.70;;;;;;;17.73;69.68;101888.47;682189;28;1211;-80
2023/09/03 00:44:26;;;;;;;43.20;38.55;;;;;;;17.70;69.66;101877.84;682706;29;811;-80
2023/09/03 00:44:47;;;;;;;45.87;40.77;;;;;;;17.73;69.76;101890.22;682008;28;1430;-81
2023/09/03 00:45:08;;;;;;;48.63;41.67;;;;;;;17.70;69.67;101880.47;685567;28;1143;-81
2023/09/03 00:45:29;;;;;;;46.28;40.92;;;;;;;17.71;69.54;101884.94;687482;28;1166;-80
2023/09/03 00:45:49;;;;;;;43.87;39.17;;;;;;;17.68;69.72;101880.47;684528;28;1894;-81
2023/09/03 00:46:11;;;;;;;43.92;39.22;;;;;;;17.70;69.55;101884.88;689547;28;1264;-80
2023/09/03 00:46:32;;;;;;;45.17;40.40;;;;;;;17.69;69.67;101886.63;687864;28;1207;-80
2023/09/03 00:46:53;;;;;;;46.85;41.75;;;;;;;17.72;69.58;101894.63;684814;28;1106;-81
2023/09/03 00:47:13;;;;;;;48.50;42.83;;;;;;;17.72;69.51;101896.34;681235;29;1542;-80
2023/09/03 00:47:34;;;;;;;51.03;43.25;;;;;;;17.74;69.62;101903.44;682412;29;889;-80
2023/09/03 00:47:55;;;;;;;49.60;44.17;;;;;;;17.74;69.64;101894.63;682173;28;1126;-80
2023/09/03 00:48:20;;;;;;;49.92;44.15;;;;;;;17.73;69.59;101895.50;684607;28;1591;-80
2023/09/03 00:48:41;;;;;;;51.85;45.08;;;;;;;17.73;69.70;101893.75;684454;28;1967;-80
2023/09/03 00:49:01;;;;;;;52.73;45.27;;;;;;;17.74;69.54;101900.81;687766;28;1118;-80
2023/09/03 00:49:24;;;;;;;53.92;45.65;;;;;;;17.72;69.68;101902.53;681467;29;1463;-80
2023/09/03 00:49:45;;;;;;;50.58;44.30;;;;;;;17.71;69.48;101895.47;679596;29;1907;-81
2023/09/03 00:50:08;;;;;;;46.92;41.80;;;;;;;17.71;69.54;101906.03;682245;29;1100;-81
2023/09/03 00:50:30;;;;;;;46.20;39.75;;;;;;;17.67;69.64;101898.94;687184;28;1528;-80
2023/09/03 00:50:51;;;;;;;44.67;38.03;;;;;;;17.71;69.68;101913.06;685914;28;1607;-81
2023/09/03 00:51:12;;;;;;;44.35;37.55;;;;;;;17.71;69.56;101905.16;687748;28;1267;-81
2023/09/03 00:51:35;;;;;;;41.60;37.17;;;;;;;17.66;69.44;101903.31;683306;28;1805;-81
2023/09/03 00:51:56;;;;;;;40.72;36.42;;;;;;;17.66;69.64;101907.72;690158;28;1381;-81
2023/09/03 00:52:19;;;;;;;40.88;36.10;;;;;;;17.65;69.56;101906.81;688181;28;1139;-80
2023/09/03 00:52:39;;;;;;;41.22;36.28;;;;;;;17.63;69.72;101903.25;687149;28;1496;-81
2023/09/03 00:53:00;;;;;;;40.80;36.30;;;;;;;17.62;69.52;101901.50;689301;28;1127;-81
2023/09/03 00:53:21;;;;;;;42.57;38.00;;;;;;;17.62;69.62;101908.50;687183;28;1316;-80
2023/09/03 00:53:47;;;;;;;42.85;38.35;;;;;;;17.63;69.52;101912.91;688836;28;1625;-81
2023/09/03 00:54:08;;;;;;;39.75;35.55;;;;;;;17.58;69.47;101907.56;687285;28;1314;-80
2023/09/03 00:54:28;;;;;;;35.95;32.15;;;;;;;17.58;69.57;101906.69;688023;28;748;-80
2023/09/03 00:54:50;;;;;;;35.35;31.65;;;;;;;17.53;69.86;101902.22;687059;28;1827;-81
2023/09/03 00:55:11;;;;;;;36.42;32.63;;;;;;;17.59;69.54;101917.28;684964;28;1365;-81
2023/09/03 00:55:32;;;;;;;37.77;33.63;;;;;;;17.57;69.62;101913.72;679758;29;887;-80
2023/09/03 00:55:53;;;;;;;43.83;36.92;;;;;;;17.57;69.56;101915.47;687035;28;1621;-81
2023/09/03 00:56:14;;;;;;;45.72;38.50;;;;;;;17.56;69.56;101919.84;682137;28;1219;-80
2023/09/03 00:56:34;;;;;;;47.35;41.65;;;;;;;17.52;69.72;101921.56;685037;28;1414;-80
2023/09/03 00:56:56;;;;;;;46.42;41.42;;;;;;;17.56;69.66;101921.63;683795;28;1245;-80
2023/09/03 00:57:17;;;;;;;46.50;41.50;;;;;;;17.52;69.63;101921.56;683701;28;1383;-80
2023/09/03 00:57:37;;;;;;;45.53;40.63;;;;;;;17.53;69.72;101923.31;684934;28;1515;-81
2023/09/03 00:57:59;;;;;;;45.92;41.08;;;;;;;17.53;69.61;101923.31;681569;28;1934;-80
2023/09/03 00:58:20;;;;;;;46.90;42.10;;;;;;;17.52;69.82;101923.31;682405;28;1366;-80
2023/09/03 00:58:41;;;;;;;49.83;44.22;;;;;;;17.51;69.69;101921.50;683894;28;1371;-81
2023/09/03 00:59:02;;;;;;;54.90;44.80;;;;;;;17.54;70.15;101930.38;687248;28;1394;-80
2023/09/03 00:59:23;;;;;;;53.63;44.20;;;;;;;17.55;69.77;101931.28;684506;28;1139;-81
2023/09/03 00:59:45;;;;;;;50.03;43.03;;;;;;;17.56;69.59;101929.53;685115;28;1333;-81
2023/09/03 01:00:07;;;;;;;48.90;43.50;;;;;;;17.55;69.64;101931.28;687427;28;1093;-80
2023/09/03 01:00:29;;;;;;;50.00;44.65;;;;;;;17.50;69.64;101920.66;687948;28;1278;-80
2023/09/03 01:00:50;;;;;;;48.50;43.55;;;;;;;17.54;69.78;101930.38;687141;28;2029;-81
2023/09/03 01:01:11;;;;;;;47.83;42.97;;;;;;;17.54;69.74;101930.38;682005;28;1620;-80
2023/09/03 01:01:32;;;;;;;47.20;42.25;;;;;;;17.53;69.62;101928.59;680014;29;1377;-81
2023/09/03 01:01:53;;;;;;;47.90;42.70;;;;;;;17.52;69.72;101926.81;684260;28;1332;-80
2023/09/03 01:02:17;;;;;;;50.25;43.03;;;;;;;17.47;69.66;101917.06;681259;28;1514;-81
2023/09/03 01:02:38;;;;;;;50.70;43.60;;;;;;;17.52;69.65;101925.97;684943;28;1658;-81
2023/09/03 01:03:00;;;;;;;49.22;43.38;;;;;;;17.53;69.81;101928.59;684868;28;1192;-81
2023/09/03 01:03:22;;;;;;;47.53;42.53;;;;;;;17.48;69.78;101919.75;690085;28;1312;-80
2023/09/03 01:03:43;;;;;;;47.30;42.47;;;;;;;17.49;69.46;101918.88;685766;28;1406;-80
2023/09/03 01:04:04;;;;;;;47.92;43.13;;;;;;;17.51;69.63;101929.44;685087;28;1101;-80
2023/09/03 01:04:24;;;;;;;48.60;43.30;;;;;;;17.50;69.58;101917.09;687636;28;1548;-81
2023/09/03 01:04:45;;;;;;;50.40;42.78;;;;;;;17.51;69.59;101921.50;685018;28;1197;-81
2023/09/03 01:05:06;;;;;;;51.40;42.78;;;;;;;17.50;69.58;101920.66;682081;28;1186;-80
2023/09/03 01:05:27;;;;;;;48.78;43.47;;;;;;;17.53;69.82;101928.59;683568;28;811;-80
2023/09/03 01:05:48;;;;;;;50.17;44.78;;;;;;;17.51;69.54;101925.06;684267;28;1335;-81
2023/09/03 01:06:09;;;;;;;48.75;43.55;;;;;;;17.48;69.50;101918.84;684917;28;1229;-81
2023/09/03 01:06:29;;;;;;;47.67;42.27;;;;;;;17.45;69.66;101919.66;685634;28;1382;-80
2023/09/03 01:06:51;;;;;;;44.83;39.55;;;;;;;17.47;69.63;101930.25;684164;28;1397;-80
2023/09/03 01:07:14;;;;;;;42.47;37.85;;;;;;;17.47;69.54;101925.88;685587;28;1331;-80
2023/09/03 01:07:35;;;;;;;42.50;36.97;;;;;;;17.44;69.66;101920.53;684666;28;1365;-81
2023/09/03 01:07:58;;;;;;;44.97;38.83;;;;;;;17.45;69.68;101921.44;684818;28;1337;-81
2023/09/03 01:08:20;;;;;;;50.88;40.33;;;;;;;17.47;69.68;101930.25;685046;28;1107;-80
2023/09/03 01:08:41;;;;;;;52.90;41.47;;;;;;;17.46;69.58;101932.00;680010;29;1924;-80
2023/09/03 01:09:02;;;;;;;53.83;41.45;;;;;;;17.44;69.61;101922.28;679474;28;1108;-80
2023/09/03 01:09:23;;;;;;;48.58;40.50;;;;;;;17.43;69.67;101925.78;680741;29;807;-81
2023/09/03 01:09:44;;;;;;;49.45;40.58;;;;;;;17.44;69.64;101928.44;679677;29;1973;-80
2023/09/03 01:10:05;;;;;;;46.97;40.13;;;;;;;17.43;69.56;101921.41;685004;28;1242;-80
2023/09/03 01:10:49;;;;;;;44.22;39.35;;;;;;;17.43;69.59;101929.31;685243;28;873;-80
2023/09/03 01:11:28;;;;;;;41.58;36.50;;;;;;;17.42;69.58;101932.81;685397;28;1274;-80
2023/09/03 01:12:19;;;;;;;45.40;37.17;;;;;;;17.40;69.71;101929.28;679538;29;1775;-81
2023/09/03 01:12:59;;;;;;;49.90;39.72;;;;;;;17.37;69.60;101930.09;680823;29;1493;-81
2023/09/03 01:13:49;;;;;;;45.35;39.25;;;;;;;17.37;69.50;101929.19;687043;28;1787;-80
2023/09/03 01:14:22;;;;;;;45.53;40.72;;;;;;;17.36;69.54;101925.69;680988;28;1152;-80
2023/09/03 01:15:02;;;;;;;48.22;43.03;;;;;;;17.36;69.63;101935.34;678025;29;1635;-80
2023/09/03 01:15:29;;;;;;;48.40;43.20;;;;;;;17.37;69.76;101934.47;680742;29;1211;-80
2023/09/03 01:15:52;;;;;;;48.28;42.92;;;;;;;17.33;69.57;101928.25;679009;29;1090;-81
2023/09/03 01:16:23;;;;;;;48.80;42.97;;;;;;;17.33;69.79;101930.00;681238;29;1211;-80
2023/09/03 01:16:54;;;;;;;45.90;40.90;;;;;;;17.34;69.81;101926.50;679811;29;1107;-81
2023/09/03 01:17:22;;;;;;;44.15;39.45;;;;;;;17.30;69.76;101924.66;683029;28;1171;-81
2023/09/03 01:18:08;;;;;;;45.40;40.50;;;;;;;17.33;69.88;101925.59;682198;29;1342;-80
2023/09/03 01:18:30;;;;;;;46.20;40.47;;;;;;;17.36;69.73;101924.78;681436;28;1128;-80
2023/09/03 01:18:54;;;;;;;45.20;39.63;;;;;;;17.35;69.74;101921.28;682350;29;1138;-81
2023/09/03 01:19:59;;;;;;;44.55;39.33;;;;;;;17.37;69.71;101922.19;681424;29;1477;-80
2023/09/03 01:20:31;;;;;;;47.85;41.47;;;;;;;17.38;69.46;101918.69;671457;29;1241;-80
2023/09/03 01:20:58;;;;;;;46.70;41.55;;;;;;;17.39;69.56;101916.91;673582;29;1750;-80
2023/09/03 01:21:43;;;;;;;50.72;42.58;;;;;;;17.39;69.51;101919.53;674143;29;1519;-81
2023/09/03 01:22:15;;;;;;;50.80;43.20;;;;;;;17.33;69.51;101909.78;669316;29;1337;-80
2023/09/03 01:22:35;;;;;;;45.33;40.40;;;;;;;17.39;69.60;101916.91;672419;29;1834;-80
2023/09/03 01:23:21;;;;;;;48.58;40.97;;;;;;;17.39;69.46;101922.19;673900;29;1527;-80
2023/09/03 01:24:16;;;;;;;53.67;43.90;;;;;;;17.31;69.72;101910.59;676892;29;1078;-81
2023/09/03 01:24:50;;;;;;;52.88;45.83;;;;;;;17.32;69.76;101917.69;674504;29;1058;-80
2023/09/03 01:25:30;;;;;;;51.60;43.40;;;;;;;17.25;69.77;101906.13;673321;29;1660;-81
2023/09/03 01:26:24;;;;;;;48.38;42.63;;;;;;;17.30;69.85;101916.75;668521;29;1047;-81
2023/09/03 01:26:56;;;;;;;48.72;43.40;;;;;;;17.26;69.85;101908.78;682216;29;1434;-80
2023/09/03 01:27:33;;;;;;;49.08;42.40;;;;;;;17.28;69.79;101910.56;687069;28;1768;-80
2023/09/03 01:28:18;;;;;;;49.38;43.33;;;;;;;17.28;69.96;101913.19;692975;28;1241;-81
2023/09/03 01:28:40;;;;;;;48.67;43.38;;;;;;;17.28;69.92;101910.56;688780;28;1038;-81
2023/09/03 01:29:01;;;;;;;49.72;43.70;;;;;;;17.23;69.81;101903.44;682125;28;1070;-80
2023/09/03 01:29:23;;;;;;;49.70;42.55;;;;;;;17.21;69.94;101905.16;685202;28;1289;-81
2023/09/03 01:29:45;;;;;;;53.60;44.95;;;;;;;17.27;69.82;101909.66;679936;29;1978;-80
2023/09/03 01:30:06;;;;;;;57.22;46.17;;;;;;;17.26;69.93;101908.78;684622;28;1356;-80
2023/09/03 01:30:28;;;;;;;58.22;47.50;;;;;;;17.25;69.90;101903.47;687873;28;1199;-80
2023/09/03 01:30:50;;;;;;;57.45;46.13;;;;;;;17.25;69.83;101907.00;682353;29;1360;-80
2023/09/03 01:31:15;;;;;;;53.25;45.80;;;;;;;17.24;69.77;101913.16;684195;28;1269;-80
2023/09/03 01:31:37;;;;;;;51.38;45.45;;;;;;;17.21;69.71;101910.44;680131;28;1409;-80
2023/09/03 01:31:59;;;;;;;51.40;44.20;;;;;;;17.20;69.84;101907.75;678703;29;1022;-80
2023/09/03 01:32:21;;;;;;;48.03;42.42;;;;;;;17.20;69.82;101913.03;679622;29;1296;-81
2023/09/03 01:32:43;;;;;;;45.67;40.17;;;;;;;17.14;69.85;101900.59;681798;29;1464;-80
2023/09/03 01:33:05;;;;;;;44.03;39.20;;;;;;;17.19;69.93;101912.13;683103;28;1281;-80
2023/09/03 01:33:28;;;;;;;44.25;38.28;;;;;;;17.18;69.93;101914.75;685024;28;823;-80
2023/09/03 01:33:48;;;;;;;42.50;37.90;;;;;;;17.15;69.99;101915.56;682196;28;1531;-81
2023/09/03 01:34:11;;;;;;;43.50;38.97;;;;;;;17.15;70.11;101912.94;684287;28;1358;-80
2023/09/03 01:34:33;;;;;;;44.90;40.20;;;;;;;17.13;70.05;101914.66;679935;29;1326;-81
2023/09/03 01:34:55;;;;;;;44.10;39.40;;;;;;;17.10;70.17;101907.56;679414;29;1466;-81
2023/09/03 01:35:18;;;;;;;41.90;37.50;;;;;;;17.15;69.98;101920.84;684429;28;1179;-80
2023/09/03 01:35:40;;;;;;;41.40;37.10;;;;;;;17.12;70.20;101915.50;680423;29;1287;-80
2023/09/03 01:36:06;;;;;;;41.83;37.42;;;;;;;17.11;70.05;101926.94;681957;29;1304;-81
2023/09/03 01:36:28;;;;;;;44.50;37.70;;;;;;;17.13;70.14;101927.84;684278;28;1126;-80
2023/09/03 01:36:50;;;;;;;42.45;36.80;;;;;;;17.12;70.39;101923.44;685097;28;1009;-81
2023/09/03 01:37:12;;;;;;;44.92;37.08;;;;;;;17.10;69.98;101917.25;687540;28;1071;-80
2023/09/03 01:37:34;;;;;;;43.25;38.75;;;;;;;17.10;69.91;101918.13;682595;29;897;-80
2023/09/03 01:37:54;;;;;;;45.53;40.05;;;;;;;17.15;70.07;101925.25;684590;28;1143;-80
2023/09/03 01:38:15;;;;;;;46.63;40.08;;;;;;;17.10;69.88;101917.25;680379;29;1087;-80
2023/09/03 01:38:36;;;;;;;47.20;38.72;;;;;;;17.14;70.14;101929.63;679802;29;1368;-81
2023/09/03 01:38:59;;;;;;;44.58;39.70;;;;;;;17.14;69.92;101929.63;676903;29;1336;-80
2023/09/03 01:39:20;;;;;;;46.35;41.45;;;;;;;17.12;70.05;101926.06;681707;29;1233;-81
2023/09/03 01:39:41;;;;;;;47.15;42.35;;;;;;;17.13;69.93;101925.19;682388;28;993;-81
2023/09/03 01:40:02;;;;;;;46.55;41.75;;;;;;;17.16;69.83;101932.28;685846;28;1058;-80
2023/09/03 01:40:23;;;;;;;46.80;41.83;;;;;;;17.10;70.04;101923.38;685057;28;1517;-80
2023/09/03 01:40:47;;;;;;;48.00;42.80;;;;;;;17.15;69.90;101931.38;682138;29;1659;-81
2023/09/03 01:41:08;;;;;;;48.67;43.38;;;;;;;17.12;70.02;101928.69;678536;29;1982;-82
2023/09/03 01:41:37;;;;;;;50.83;43.03;;;;;;;17.09;70.08;101923.38;682404;29;1548;-80
2023/09/03 01:41:58;;;;;;;56.65;43.97;;;;;;;17.08;69.94;101918.97;682013;29;1425;-79
2023/09/03 01:42:19;;;;;;;55.57;44.53;;;;;;;17.10;70.17;101933.06;684694;28;1274;-80
2023/09/03 01:42:39;;;;;;;54.00;44.17;;;;;;;17.12;70.19;101923.44;687122;28;1174;-80
2023/09/03 01:43:00;;;;;;;49.97;44.50;;;;;;;17.12;70.08;101926.06;682339;29;1005;-81
2023/09/03 01:43:20;;;;;;;47.85;42.80;;;;;;;17.12;70.16;101926.06;684662;28;1407;-80
2023/09/03 01:43:41;;;;;;;46.42;41.53;;;;;;;17.11;70.15;101924.28;682385;29;1322;-81
2023/09/03 01:44:04;;;;;;;45.78;40.97;;;;;;;17.14;70.14;101934.88;682180;28;1239;-81
2023/09/03 01:44:25;;;;;;;49.40;43.70;;;;;;;17.11;70.17;101919.03;684101;28;1375;-80
2023/09/03 01:44:46;;;;;;;50.30;44.38;;;;;;;17.10;70.14;101917.25;682268;29;1248;-81
2023/09/03 01:45:07;;;;;;;49.90;44.40;;;;;;;17.12;70.08;101911.16;684718;28;1251;-80
2023/09/03 01:45:41;;;;;;;51.22;45.67;;;;;;;17.09;70.14;101910.19;680443;29;1726;-80
2023/09/03 01:46:12;;;;;;;51.50;45.95;;;;;;;17.11;70.10;101921.66;684825;28;1025;-81
2023/09/03 01:46:48;;;;;;;51.17;44.08;;;;;;;17.13;70.11;101926.09;685789;28;949;-81
2023/09/03 01:47:21;;;;;;;57.35;44.90;;;;;;;17.10;70.08;101906.69;686425;28;1508;-81
2023/09/03 01:48:00;;;;;;;50.15;44.00;;;;;;;17.13;70.09;101918.19;684976;28;1267;-81
2023/09/03 01:48:30;;;;;;;46.95;42.17;;;;;;;17.09;70.14;101911.06;684985;28;1137;-80
2023/09/03 01:48:56;;;;;;;44.90;40.40;;;;;;;17.12;70.23;101926.06;687386;28;1095;-80